Photometre #346[Polarized_P] OHP_OBSERVATOIRE AOT

File : 20190926_346.hum

26/09/2019,06:18:26,TEMP=12.8,BA=5.64,STAT.A=Abs.,ExtBa=13.72
26/09/2019,06:22:02,TEMP=13.2,BA=5.64,STAT.A=Abs.,ExtBa=13.72
26/09/2019,06:26:15,TEMP=13.7,BA=5.64,STAT.A=Abs.,ExtBa=13.73
26/09/2019,06:31:13,TEMP=14.3,BA=5.64,STAT.A=Abs.,ExtBa=13.71
26/09/2019,06:37:16,TEMP=15.1,BA=5.64,STAT.A=Abs.,ExtBa=13.74
26/09/2019,06:44:42,TEMP=16.2,BA=5.64,STAT.A=Abs.,ExtBa=13.73
26/09/2019,06:54:07,TEMP=17.1,BA=5.64,STAT.B=Abs.,ExtBa=13.73
26/09/2019,07:00:46,TEMP=17.9,BA=5.56,STAT.A=Abs.,ExtBa=12.97
26/09/2019,07:03:41,TEMP=18.0,BA=5.56,STAT.A=Abs.,ExtBa=13.13
26/09/2019,07:09:23,TEMP=17.8,BA=5.56,STAT.A=Abs.,ExtBa=13.40
26/09/2019,07:15:53,TEMP=18.0,BA=5.56,STAT.A=Abs.,ExtBa=13.59
26/09/2019,07:23:22,TEMP=18.1,BA=5.64,STAT.C=Abs.,ExtBa=13.73
26/09/2019,07:36:43,TEMP=19.9,BA=5.56,STAT.A=Abs.,ExtBa=12.93
26/09/2019,07:42:24,TEMP=19.2,BA=5.64,STAT.A=Abs.,ExtBa=13.30
26/09/2019,07:54:50,TEMP=19.9,BA=5.64,STAT.A=Abs.,ExtBa=13.82
26/09/2019,08:10:13,TEMP=20.8,BA=5.60,STAT.A=Abs.,ExtBa=13.96
26/09/2019,08:29:11,TEMP=22.3,BA=5.64,STAT.F
26/09/2019,08:44:09,TEMP=22.9,BA=5.52,STAT.D=Abs.,ExtBa=13.19
26/09/2019,08:59:09,TEMP=22.6,BA=5.64,STAT.D=Abs.,ExtBa=13.93
26/09/2019,09:14:09,TEMP=23.4,BA=5.64,STAT.D=Abs.,ExtBa=13.96
26/09/2019,09:29:11,TEMP=24.0,BA=5.64,STAT.F
26/09/2019,09:44:53,TEMP=24.4,BA=5.52,STAT.D=Abs.,ExtBa=13.30
26/09/2019,09:59:09,TEMP=24.7,BA=5.64,STAT.D=Abs.,ExtBa=13.95
26/09/2019,10:14:09,TEMP=25.0,BA=5.64,STAT.D=Abs.,ExtBa=13.95
26/09/2019,10:29:11,TEMP=25.6,BA=5.64,STAT.F
26/09/2019,10:44:09,TEMP=26.1,BA=5.52,STAT.D=Abs.,ExtBa=13.29
26/09/2019,10:59:09,TEMP=26.0,BA=5.64,STAT.D=Abs.,ExtBa=13.97
26/09/2019,11:14:09,TEMP=26.3,BA=5.64,STAT.D=Abs.,ExtBa=13.89
26/09/2019,11:29:11,TEMP=27.0,BA=5.64,STAT.F
26/09/2019,11:44:09,TEMP=27.3,BA=5.48,STAT.D=Abs.,ExtBa=13.22
26/09/2019,11:59:09,TEMP=27.0,BA=5.60,STAT.D=Abs.,ExtBa=13.94
26/09/2019,12:14:09,TEMP=27.1,BA=5.64,STAT.D=Abs.,ExtBa=13.87
26/09/2019,12:29:11,TEMP=27.3,BA=5.64,STAT.F
26/09/2019,12:44:09,TEMP=27.7,BA=5.48,STAT.D=Abs.,ExtBa=13.27
26/09/2019,12:59:09,TEMP=27.7,BA=5.60,STAT.D=Abs.,ExtBa=13.93
26/09/2019,13:14:09,TEMP=28.0,BA=5.64,STAT.D=Abs.,ExtBa=13.84
26/09/2019,13:29:11,TEMP=27.8,BA=5.64,STAT.F
26/09/2019,13:44:09,TEMP=27.8,BA=5.48,STAT.D=Abs.,ExtBa=13.28
26/09/2019,13:59:09,TEMP=27.1,BA=5.60,STAT.D=Abs.,ExtBa=13.92
26/09/2019,14:14:09,TEMP=27.1,BA=5.60,STAT.D=Abs.,ExtBa=13.83
26/09/2019,14:29:10,TEMP=27.1,BA=5.64,STAT.F
26/09/2019,14:48:08,TEMP=27.4,BA=5.48,STAT.A=Abs.,ExtBa=13.58
26/09/2019,15:03:32,TEMP=27.4,BA=5.60,STAT.A=Abs.,ExtBa=13.90
26/09/2019,15:15:58,TEMP=27.3,BA=5.60,STAT.A=Abs.,ExtBa=13.82
26/09/2019,15:26:17,TEMP=26.9,BA=5.60,STAT.A=Abs.,ExtBa=13.80
26/09/2019,15:35:00,TEMP=26.7,BA=5.60,STAT.C=Abs.,ExtBa=13.79
26/09/2019,15:47:54,TEMP=27.6,BA=5.48,STAT.A=Abs.,ExtBa=13.01
26/09/2019,15:49:45,TEMP=27.3,BA=5.48,STAT.A=Abs.,ExtBa=13.07
26/09/2019,15:54:41,TEMP=26.2,BA=5.48,STAT.A=Abs.,ExtBa=13.39
26/09/2019,15:59:45,TEMP=25.8,BA=5.48,STAT.A=Abs.,ExtBa=13.61
26/09/2019,16:04:15,TEMP=25.7,BA=5.52,STAT.B=Abs.,ExtBa=13.72
26/09/2019,16:13:38,TEMP=25.3,BA=5.48,STAT.A=Abs.,ExtBa=13.29
26/09/2019,16:21:05,TEMP=25.1,BA=5.60,STAT.A=Abs.,ExtBa=13.68
26/09/2019,16:27:08,TEMP=25.0,BA=5.60,STAT.A=Abs.,ExtBa=13.79
26/09/2019,16:32:06,TEMP=24.9,BA=5.60,STAT.A=Abs.,ExtBa=13.79
26/09/2019,16:39:04,TEMP=24.6,BA=5.60,STAT.A=Abs.,ExtBa=13.84
26/09/2019,16:40:57,TEMP=24.9,BA=5.48,STAT.A=Abs.,ExtBa=13.69